Thunder radar more information blitzortung!


Löydät sääaseman tiedot myös:

European Weather Network

Finland Weather Exchange

Weather Underground

AWEKAS



Weather Underground säähistoriasivu

Päivittäin yhteenveto Helmikuu 7, 2017 Yksiköt:  Molemmat    Englantilaiset   Metriset
« Edellinen Päivä
Seuraava Päivä »
Päivittäin Viikoittain Kuukausittain Vuosittain Mukautettu
  Korkea: Matala: Keskiarvo:
Lämpötila: TemperatureC °F /  -17.8 °C -19.6 °F /  -28.7 °C -15.6 °F /  -26.4 °C
Kastepiste: DewpointC °F /  -17.8 °C -21.3 °F /  -29.6 °C -17.1 °F /  -27.3 °C
Kosteus: Humidity % 82 % 87 %
Tuulen nopeus: WindSpeedKMH mph /  0 km/h - 0 mph /  0 km/h
Tuulenpuuska: WindSpeedGustKMH mph /  0 km/h - -
Tuuli:- - North
Ilmanpaine: PressurehPa in /  0 hPa 1043.6 in /  35336.3 hPa -
Sade: 0.0 in /  0 mm    
Historical Graphs
 
 
Taulukkotiedot Helmikuu 7, 2017
Aika Lämpötila Kastepiste Ilmanpaine Tuuli Tuulen nopeus Tuulenpuuska Kosteus Sademäärä (tunneittain)
TemperatureC °F /  -17.8 °C DewpointC °F /  -17.8 °C PressurehPa in /  0 hPa Calm     Humidity % HourlyPrecipMM in /  0 mm
00:00 -15.9 °F /  -26.6 °C -17.5 °F /  -27.5 °C 1043.6 in /  35336.3 hPa Calm     88 % 0.0 in /  0 mm
00:15 -16.2 °F /  -26.8 °C -17.7 °F /  -27.6 °C 1043.9 in /  35346.5 hPa Calm     88 % 0.0 in /  0 mm
00:30 -16.3 °F /  -26.8 °C -17.8 °F /  -27.7 °C 1043.9 in /  35346.5 hPa Calm     88 % 0.0 in /  0 mm
00:45 -16.4 °F /  -26.9 °C -17.9 °F /  -27.7 °C 1043.9 in /  35346.5 hPa Calm     88 % 0.0 in /  0 mm
01:00 -16.5 °F /  -26.9 °C -18.0 °F /  -27.8 °C 1044.2 in /  35356.6 hPa Calm     88 % 0.0 in /  0 mm
01:15 -16.6 °F /  -27 °C -18.1 °F /  -27.8 °C 1044.2 in /  35356.6 hPa Calm     88 % 0.0 in /  0 mm
01:30 -16.7 °F /  -27.1 °C -18.2 °F /  -27.9 °C 1044.2 in /  35356.6 hPa Calm     88 % 0.0 in /  0 mm
01:45 -16.8 °F /  -27.1 °C -18.5 °F /  -28.1 °C 1044.6 in /  35370.2 hPa Calm     87 % 0.0 in /  0 mm
02:00 -17.0 °F /  -27.2 °C -18.5 °F /  -28.1 °C 1044.6 in /  35370.2 hPa Calm     88 % 0.0 in /  0 mm
02:15 -17.1 °F /  -27.3 °C -18.6 °F /  -28.1 °C 1044.6 in /  35370.2 hPa Calm     88 % 0.0 in /  0 mm
02:30 -17.1 °F /  -27.3 °C -18.6 °F /  -28.1 °C 1044.6 in /  35370.2 hPa Calm     88 % 0.0 in /  0 mm
02:45 -17.2 °F /  -27.3 °C -18.7 °F /  -28.2 °C 1044.6 in /  35370.2 hPa Calm     88 % 0.0 in /  0 mm
03:00 -17.3 °F /  -27.4 °C -18.8 °F /  -28.2 °C 1044.9 in /  35380.3 hPa Calm     88 % 0.0 in /  0 mm
03:15 -17.5 °F /  -27.5 °C -19.1 °F /  -28.4 °C 1044.9 in /  35380.3 hPa Calm     87 % 0.0 in /  0 mm
03:30 -17.6 °F /  -27.6 °C -19.3 °F /  -28.5 °C 1044.9 in /  35380.3 hPa Calm     87 % 0.0 in /  0 mm
03:45 -17.7 °F /  -27.6 °C -19.4 °F /  -28.6 °C 1044.9 in /  35380.3 hPa Calm     87 % 0.0 in /  0 mm
04:00 -17.8 °F /  -27.7 °C -19.4 °F /  -28.6 °C 1044.9 in /  35380.3 hPa Calm     87 % 0.0 in /  0 mm
04:15 -17.9 °F /  -27.7 °C -19.5 °F /  -28.6 °C 1044.9 in /  35380.3 hPa Calm     87 % 0.0 in /  0 mm
04:30 -18.0 °F /  -27.8 °C -19.6 °F /  -28.7 °C 1044.9 in /  35380.3 hPa Calm     87 % 0.0 in /  0 mm
04:45 -18.2 °F /  -27.9 °C -19.8 °F /  -28.8 °C 1045.3 in /  35393.9 hPa Calm     87 % 0.0 in /  0 mm
05:00 -18.3 °F /  -27.9 °C -19.9 °F /  -28.8 °C 1045.3 in /  35393.9 hPa Calm     87 % 0.0 in /  0 mm
05:15 -18.4 °F /  -28 °C -20.0 °F /  -28.9 °C 1045.3 in /  35393.9 hPa Calm     87 % 0.0 in /  0 mm
05:30 -18.5 °F /  -28.1 °C -20.1 °F /  -28.9 °C 1045.3 in /  35393.9 hPa Calm     87 % 0.0 in /  0 mm
05:45 -18.6 °F /  -28.1 °C -20.2 °F /  -29 °C 1045.3 in /  35393.9 hPa Calm     87 % 0.0 in /  0 mm
06:00 -18.7 °F /  -28.2 °C -20.3 °F /  -29.1 °C 1045.3 in /  35393.9 hPa Calm     87 % 0.0 in /  0 mm
06:15 -18.8 °F /  -28.2 °C -20.5 °F /  -29.2 °C 1045.3 in /  35393.9 hPa Calm     87 % 0.0 in /  0 mm
06:30 -19.0 °F /  -28.3 °C -20.8 °F /  -29.3 °C 1045.6 in /  35404 hPa Calm     86 % 0.0 in /  0 mm
06:45 -19.1 °F /  -28.4 °C -20.7 °F /  -29.3 °C 1045.6 in /  35404 hPa Calm     87 % 0.0 in /  0 mm
07:00 -19.2 °F /  -28.4 °C -20.8 °F /  -29.3 °C 1045.6 in /  35404 hPa Calm     87 % 0.0 in /  0 mm
07:15 -19.1 °F /  -28.4 °C -20.7 °F /  -29.3 °C 1045.9 in /  35414.2 hPa Calm     87 % 0.0 in /  0 mm
07:30 -19.2 °F /  -28.4 °C -21.0 °F /  -29.4 °C 1045.9 in /  35414.2 hPa Calm     86 % 0.0 in /  0 mm
07:45 -19.3 °F /  -28.5 °C -21.1 °F /  -29.5 °C 1045.9 in /  35414.2 hPa Calm     86 % 0.0 in /  0 mm
08:00 -19.4 °F /  -28.6 °C -21.0 °F /  -29.4 °C 1045.9 in /  35414.2 hPa Calm     87 % 0.0 in /  0 mm
08:15 -19.4 °F /  -28.6 °C -21.2 °F /  -29.6 °C 1045.9 in /  35414.2 hPa Calm     86 % 0.0 in /  0 mm
08:30 -19.5 °F /  -28.6 °C -21.2 °F /  -29.6 °C 1046.3 in /  35427.7 hPa Calm     86 % 0.0 in /  0 mm
08:45 -19.6 °F /  -28.7 °C -21.2 °F /  -29.6 °C 1046.3 in /  35427.7 hPa Calm     87 % 0.0 in /  0 mm
09:00 -19.6 °F /  -28.7 °C -21.3 °F /  -29.6 °C 1046.3 in /  35427.7 hPa Calm     86 % 0.0 in /  0 mm
09:15 -19.4 °F /  -28.6 °C -21.1 °F /  -29.5 °C 1046.3 in /  35427.7 hPa Calm     87 % 0.0 in /  0 mm
09:30 -19.3 °F /  -28.5 °C -20.9 °F /  -29.4 °C 1046.3 in /  35427.7 hPa Calm     87 % 0.0 in /  0 mm
09:45 -19.2 °F /  -28.4 °C -20.8 °F /  -29.3 °C 1046.6 in /  35437.9 hPa Calm     87 % 0.0 in /  0 mm
10:00 -18.9 °F /  -28.3 °C -20.4 °F /  -29.1 °C 1046.6 in /  35437.9 hPa Calm     88 % 0.0 in /  0 mm
10:15 -18.4 °F /  -28 °C -19.8 °F /  -28.8 °C 1046.6 in /  35437.9 hPa Calm     89 % 0.0 in /  0 mm
10:30 -18.0 °F /  -27.8 °C -19.4 °F /  -28.6 °C 1046.6 in /  35437.9 hPa Calm     89 % 0.0 in /  0 mm
10:45 -17.4 °F /  -27.4 °C -18.7 °F /  -28.2 °C 1046.6 in /  35437.9 hPa Calm     90 % 0.0 in /  0 mm
11:00 -16.8 °F /  -27.1 °C -18.0 °F /  -27.8 °C 1046.6 in /  35437.9 hPa Calm     91 % 0.0 in /  0 mm
11:15 -16.2 °F /  -26.8 °C -17.3 °F /  -27.4 °C 1047.0 in /  35451.4 hPa Calm     91 % 0.0 in /  0 mm
11:30 -15.6 °F /  -26.4 °C -16.7 °F /  -27.1 °C 1047.0 in /  35451.4 hPa Calm     91 % 0.0 in /  0 mm
11:45 -15.0 °F /  -26.1 °C -16.1 °F /  -26.7 °C 1047.0 in /  35451.4 hPa Calm     91 % 0.0 in /  0 mm
12:00 -14.5 °F /  -25.8 °C -15.8 °F /  -26.6 °C 1047.0 in /  35451.4 hPa Calm     90 % 0.0 in /  0 mm
12:15 -13.9 °F /  -25.5 °C -15.2 °F /  -26.2 °C 1047.0 in /  35451.4 hPa Calm     90 % 0.0 in /  0 mm
12:30 -13.4 °F /  -25.2 °C -14.8 °F /  -26 °C 1047.0 in /  35451.4 hPa Calm     90 % 0.0 in /  0 mm
12:45 -13.0 °F /  -25 °C -14.3 °F /  -25.7 °C 1047.0 in /  35451.4 hPa Calm     90 % 0.0 in /  0 mm
13:00 -12.7 °F /  -24.8 °C -14.1 °F /  -25.6 °C 1047.0 in /  35451.4 hPa Calm     89 % 0.0 in /  0 mm
13:15 -12.3 °F /  -24.6 °C -13.7 °F /  -25.4 °C 1047.0 in /  35451.4 hPa Calm     89 % 0.0 in /  0 mm
13:30 -11.8 °F /  -24.3 °C -13.2 °F /  -25.1 °C 1047.0 in /  35451.4 hPa Calm     89 % 0.0 in /  0 mm
13:45 -11.3 °F /  -24.1 °C -12.7 °F /  -24.8 °C 1047.0 in /  35451.4 hPa Calm     89 % 0.0 in /  0 mm
14:00 -10.7 °F /  -23.7 °C -12.1 °F /  -24.5 °C 1047.0 in /  35451.4 hPa Calm     89 % 0.0 in /  0 mm
14:15 -10.6 °F /  -23.7 °C -12.2 °F /  -24.6 °C 1047.0 in /  35451.4 hPa Calm     88 % 0.0 in /  0 mm
14:30 -10.4 °F /  -23.6 °C -12.0 °F /  -24.4 °C 1047.0 in /  35451.4 hPa Calm     88 % 0.0 in /  0 mm
14:45 -10.0 °F /  -23.3 °C -11.6 °F /  -24.2 °C 1047.0 in /  35451.4 hPa Calm     88 % 0.0 in /  0 mm
15:00 -9.6 °F /  -23.1 °C -11.4 °F /  -24.1 °C 1047.0 in /  35451.4 hPa Calm     87 % 0.0 in /  0 mm
15:15 -9.3 °F /  -22.9 °C -11.2 °F /  -24 °C 1047.0 in /  35451.4 hPa Calm     86 % 0.0 in /  0 mm
15:30 -9.3 °F /  -22.9 °C -11.4 °F /  -24.1 °C 1047.0 in /  35451.4 hPa Calm     85 % 0.0 in /  0 mm
15:45 -9.3 °F /  -22.9 °C -11.5 °F /  -24.2 °C 1047.3 in /  35461.6 hPa Calm     84 % 0.0 in /  0 mm
16:00 -9.6 °F /  -23.1 °C -12.0 °F /  -24.4 °C 1047.3 in /  35461.6 hPa Calm     83 % 0.0 in /  0 mm
16:15 -9.9 °F /  -23.3 °C -12.4 °F /  -24.7 °C 1047.3 in /  35461.6 hPa Calm     82 % 0.0 in /  0 mm
16:30 -10.5 °F /  -23.6 °C -12.8 °F /  -24.9 °C 1047.3 in /  35461.6 hPa Calm     83 % 0.0 in /  0 mm
16:45 -11.3 °F /  -24.1 °C -13.4 °F /  -25.2 °C 1047.3 in /  35461.6 hPa Calm     85 % 0.0 in /  0 mm
17:00 -11.9 °F /  -24.4 °C -13.8 °F /  -25.4 °C 1047.3 in /  35461.6 hPa Calm     86 % 0.0 in /  0 mm
17:15 -12.6 °F /  -24.8 °C -14.3 °F /  -25.7 °C 1047.3 in /  35461.6 hPa Calm     87 % 0.0 in /  0 mm
17:30 -13.1 °F /  -25.1 °C -14.8 °F /  -26 °C 1047.6 in /  35471.7 hPa Calm     87 % 0.0 in /  0 mm
17:45 -13.5 °F /  -25.3 °C -15.1 °F /  -26.2 °C 1047.6 in /  35471.7 hPa Calm     88 % 0.0 in /  0 mm
18:00 -13.8 °F /  -25.4 °C -15.3 °F /  -26.3 °C 1047.6 in /  35471.7 hPa Calm     88 % 0.0 in /  0 mm
18:15 -14.1 °F /  -25.6 °C -15.7 °F /  -26.5 °C 1047.6 in /  35471.7 hPa Calm     88 % 0.0 in /  0 mm
18:30 -14.3 °F /  -25.7 °C -15.7 °F /  -26.5 °C 1047.6 in /  35471.7 hPa Calm     89 % 0.0 in /  0 mm
18:45 -14.4 °F /  -25.8 °C -15.8 °F /  -26.6 °C 1048.0 in /  35485.3 hPa Calm     89 % 0.0 in /  0 mm
19:00 -14.6 °F /  -25.9 °C -16.0 °F /  -26.7 °C 1048.0 in /  35485.3 hPa Calm     89 % 0.0 in /  0 mm
19:15 -14.8 °F /  -26 °C -16.3 °F /  -26.8 °C 1048.0 in /  35485.3 hPa Calm     88 % 0.0 in /  0 mm
19:30 -14.9 °F /  -26.1 °C -16.4 °F /  -26.9 °C 1048.0 in /  35485.3 hPa Calm     89 % 0.0 in /  0 mm
19:45 -15.1 °F /  -26.2 °C -16.5 °F /  -26.9 °C 1048.0 in /  35485.3 hPa Calm     89 % 0.0 in /  0 mm
20:00 -15.2 °F /  -26.2 °C -16.6 °F /  -27 °C 1048.0 in /  35485.3 hPa Calm     89 % 0.0 in /  0 mm
20:15 -15.4 °F /  -26.3 °C -17.0 °F /  -27.2 °C 1048.0 in /  35485.3 hPa Calm     88 % 0.0 in /  0 mm
20:30 -15.6 °F /  -26.4 °C -17.0 °F /  -27.2 °C 1048.0 in /  35485.3 hPa Calm     89 % 0.0 in /  0 mm
20:45 -15.7 °F /  -26.5 °C -17.3 °F /  -27.4 °C 1048.0 in /  35485.3 hPa Calm     88 % 0.0 in /  0 mm
21:00 -15.8 °F /  -26.6 °C -17.4 °F /  -27.4 °C 1048.0 in /  35485.3 hPa Calm     88 % 0.0 in /  0 mm
21:15 -16.0 °F /  -26.7 °C -17.5 °F /  -27.5 °C 1048.0 in /  35485.3 hPa Calm     88 % 0.0 in /  0 mm
21:30 -16.1 °F /  -26.7 °C -17.6 °F /  -27.6 °C 1048.0 in /  35485.3 hPa Calm     88 % 0.0 in /  0 mm
21:45 -16.3 °F /  -26.8 °C -17.8 °F /  -27.7 °C 1048.0 in /  35485.3 hPa Calm     88 % 0.0 in /  0 mm
22:00 -16.4 °F /  -26.9 °C -18.0 °F /  -27.8 °C 1048.3 in /  35495.4 hPa Calm     88 % 0.0 in /  0 mm
22:15 -16.5 °F /  -26.9 °C -18.0 °F /  -27.8 °C 1048.0 in /  35485.3 hPa Calm     88 % 0.0 in /  0 mm
22:30 -16.6 °F /  -27 °C -18.1 °F /  -27.8 °C 1048.0 in /  35485.3 hPa Calm     88 % 0.0 in /  0 mm
22:45 -16.7 °F /  -27.1 °C -18.2 °F /  -27.9 °C 1048.0 in /  35485.3 hPa Calm     88 % 0.0 in /  0 mm
23:00 -16.7 °F /  -27.1 °C -18.2 °F /  -27.9 °C 1048.3 in /  35495.4 hPa Calm     88 % 0.0 in /  0 mm
23:15 -16.7 °F /  -27.1 °C -18.2 °F /  -27.9 °C 1048.3 in /  35495.4 hPa Calm     88 % 0.0 in /  0 mm
23:30 -16.6 °F /  -27 °C -18.0 °F /  -27.8 °C 1048.3 in /  35495.4 hPa Calm     89 % 0.0 in /  0 mm
23:45 -16.2 °F /  -26.8 °C -17.5 °F /  -27.5 °C 1048.3 in /  35495.4 hPa Calm     90 % 0.0 in /  0 mm
Esan sääasema
Terveisin Weather Underground - 2.75 mb

Alkuperäinen skripti  Jim McMurry - jmcmurry@mwt.net Sovitettu myös templatelle  Wim van der Kuil - Leuven-Template.eu

Laitteet joita käytämme:

Sääasema
Davis VP2

Sääasemaohjelma
Cumulus

Sääaseman tietokone
Asus EeePC

Palveluntarjoaja
Suncomet

Davis VP2

Cumulus

Asus EeePC

Suncomet